createdAt,value
2022-09-01T00:00:29.254Z,99464.40
2022-09-01T00:03:04.091Z,99464.24
2022-09-01T00:05:33.282Z,99464.89
2022-09-01T00:08:01.696Z,99460.48
2022-09-01T00:10:30.025Z,99459.02
2022-09-01T00:12:58.409Z,99458.95
2022-09-01T00:15:27.413Z,99456.48
2022-09-01T00:17:56.334Z,99453.34
2022-09-01T00:20:24.621Z,99454.88
2022-09-01T00:22:52.958Z,99456.11
2022-09-01T00:25:21.945Z,99458.77
2022-09-01T00:27:51.309Z,99450.98
2022-09-01T00:30:19.826Z,99453.66
2022-09-01T00:32:48.257Z,99450.45
2022-09-01T00:35:18.701Z,99448.91
2022-09-01T00:37:47.662Z,99448.68
2022-09-01T00:40:17.362Z,99450.08
2022-09-01T00:42:46.098Z,99451.77
2022-09-01T00:45:15.164Z,99449.05
2022-09-01T00:47:43.513Z,99448.26
2022-09-01T00:50:15.156Z,99444.67
2022-09-01T00:52:49.978Z,99443.55
2022-09-01T00:55:25.646Z,99441.38
2022-09-01T00:57:54.181Z,99438.55
2022-09-01T01:00:25.990Z,99444.01
2022-09-01T01:02:56.491Z,99443.09
2022-09-01T01:05:34.978Z,99442.71
2022-09-01T01:08:04.704Z,99441.33
2022-09-01T01:10:36.799Z,99439.90
2022-09-01T01:13:17.245Z,99440.89
2022-09-01T01:15:45.517Z,99438.92
2022-09-01T01:18:16.950Z,99437.48
2022-09-01T01:21:38.605Z,99438.77
2022-09-01T01:24:07.281Z,99446.95
2022-09-01T01:26:35.766Z,99445.20
2022-09-01T01:29:05.037Z,99445.56
2022-09-01T01:31:35.581Z,99442.95
2022-09-01T01:34:08.048Z,99442.92
2022-09-01T01:36:40.194Z,99439.26
2022-09-01T01:39:16.185Z,99438.66
2022-09-01T01:41:49.092Z,99443.17
2022-09-01T01:44:25.322Z,99440.84
2022-09-01T01:46:55.286Z,99440.66
2022-09-01T01:49:28.731Z,99443.34
2022-09-01T01:51:58.197Z,99443.33
2022-09-01T01:54:32.675Z,99442.48
2022-09-01T01:57:04.615Z,99442.49
2022-09-01T01:59:33.969Z,99436.86
2022-09-01T02:02:04.107Z,99440.02
2022-09-01T02:04:34.608Z,99437.99
2022-09-01T02:07:11.978Z,99437.96
2022-09-01T02:09:44.323Z,99436.48
2022-09-01T02:12:14.958Z,99438.10
2022-09-01T02:14:44.273Z,99441.30
2022-09-01T02:17:12.576Z,99441.23
2022-09-01T02:19:43.373Z,99440.20
2022-09-01T02:22:11.728Z,99440.36
2022-09-01T02:24:46.593Z,99443.27
2022-09-01T02:27:15.868Z,99441.11
2022-09-01T02:29:44.218Z,99438.81
2022-09-01T02:32:12.481Z,99440.69
2022-09-01T02:34:41.141Z,99438.27
2022-09-01T02:37:09.458Z,99439.90
2022-09-01T02:39:38.486Z,99443.56
2022-09-01T02:42:08.720Z,99443.60
2022-09-01T02:44:41.187Z,99440.67
2022-09-01T02:47:10.133Z,99445.10
2022-09-01T02:49:38.964Z,99444.42
2022-09-01T02:52:08.044Z,99441.39
2022-09-01T02:54:36.427Z,99443.02
2022-09-01T02:57:04.885Z,99443.60
2022-09-01T02:59:38.667Z,99446.16
2022-09-01T03:02:10.046Z,99439.67
2022-09-01T03:04:39.108Z,99441.52
2022-09-01T03:07:08.885Z,99440.77
2022-09-01T03:09:37.225Z,99438.36
2022-09-01T03:12:07.277Z,99434.65
2022-09-01T03:14:35.979Z,99433.06
2022-09-01T03:17:04.379Z,99429.45
2022-09-01T03:19:37.222Z,99426.14
2022-09-01T03:22:05.737Z,99424.77
2022-09-01T03:24:34.220Z,99428.86
2022-09-01T03:27:02.775Z,99426.34
2022-09-01T03:29:31.162Z,99429.77
2022-09-01T03:31:59.566Z,99430.68
2022-09-01T03:34:28.486Z,99432.06
2022-09-01T03:36:57.681Z,99430.40
2022-09-01T03:39:29.827Z,99431.88
2022-09-01T03:41:59.075Z,99431.73
2022-09-01T03:44:27.758Z,99430.98
2022-09-01T03:46:58.611Z,99428.31
2022-09-01T03:49:28.901Z,99427.14
2022-09-01T03:51:58.844Z,99429.04
2022-09-01T03:54:32.017Z,99434.50
2022-09-01T03:57:00.814Z,99435.00
2022-09-01T03:59:30.762Z,99435.73
2022-09-01T04:02:00.514Z,99435.23
2022-09-01T04:04:33.175Z,99438.38
2022-09-01T04:07:01.828Z,99441.00
2022-09-01T04:09:35.313Z,99441.36
2022-09-01T04:12:10.054Z,99437.48
2022-09-01T04:14:40.190Z,99438.12
2022-09-01T04:17:30.457Z,99441.36
2022-09-01T04:19:59.146Z,99440.73
2022-09-01T04:22:30.370Z,99440.35
2022-09-01T04:24:59.865Z,99443.16
2022-09-01T04:27:29.274Z,99445.89
2022-09-01T04:29:58.078Z,99444.98
2022-09-01T04:32:29.050Z,99443.41
2022-09-01T04:35:01.786Z,99443.05
2022-09-01T04:37:31.182Z,99446.88
2022-09-01T04:40:04.136Z,99444.54
2022-09-01T04:42:34.297Z,99445.30
2022-09-01T04:45:10.181Z,99446.38
2022-09-01T04:47:45.675Z,99449.50
2022-09-01T04:50:18.619Z,99450.50
2022-09-01T04:53:12.244Z,99452.23
2022-09-01T04:55:49.906Z,99453.33
2022-09-01T04:58:22.437Z,99450.38
2022-09-01T05:00:52.578Z,99455.08
2022-09-01T05:03:24.493Z,99451.61
2022-09-01T05:06:20.538Z,99452.16
2022-09-01T05:08:53.716Z,99456.90
2022-09-01T05:11:50.249Z,99455.72
2022-09-01T05:14:28.102Z,99455.54
2022-09-01T05:17:00.629Z,99453.98
2022-09-01T05:19:30.041Z,99453.46
2022-09-01T05:22:00.773Z,99452.84
2022-09-01T05:24:30.614Z,99453.46
2022-09-01T05:27:01.812Z,99451.30
2022-09-01T05:29:32.077Z,99450.83
2022-09-01T05:32:00.527Z,99451.79
2022-09-01T05:34:29.930Z,99451.30
2022-09-01T05:36:59.955Z,99456.51
2022-09-01T05:39:29.444Z,99454.93
2022-09-01T05:41:59.606Z,99451.65
2022-09-01T05:44:28.123Z,99451.26
2022-09-01T05:46:59.776Z,99453.85
2022-09-01T05:49:33.381Z,99455.79
2022-09-01T05:52:05.473Z,99452.63
2022-09-01T05:54:34.932Z,99455.90
2022-09-01T05:57:30.290Z,99457.60
2022-09-01T05:59:54.266Z,99457.18
2022-09-01T06:02:27.484Z,99460.48
2022-09-01T06:04:57.541Z,99461.19
2022-09-01T06:07:31.005Z,99468.50
2022-09-01T06:10:00.954Z,99464.88
2022-09-01T06:12:29.253Z,99462.67
2022-09-01T06:14:59.283Z,99463.03
2022-09-01T06:17:29.086Z,99467.58
2022-09-01T06:20:00.098Z,99462.36
2022-09-01T06:22:29.575Z,99465.70
2022-09-01T06:25:02.318Z,99469.96
2022-09-01T06:27:42.762Z,99468.45
2022-09-01T06:30:24.067Z,99471.30
2022-09-01T06:33:13.827Z,99472.45
2022-09-01T06:35:47.333Z,99473.41
2022-09-01T06:38:19.519Z,99474.52
2022-09-01T06:40:54.579Z,99474.65
2022-09-01T06:43:23.800Z,99471.56
2022-09-01T06:45:55.180Z,99468.67
2022-09-01T06:48:30.843Z,99469.26
2022-09-01T06:51:19.914Z,99467.20
2022-09-01T06:53:56.855Z,99466.64
2022-09-01T06:56:31.994Z,99470.34
2022-09-01T06:59:05.301Z,99471.45
2022-09-01T07:01:35.439Z,99475.25
2022-09-01T07:04:04.217Z,99479.63
2022-09-01T07:07:00.154Z,99485.50
2022-09-01T07:13:06.874Z,99497.93
2022-09-01T07:18:31.722Z,99498.63
2022-09-01T07:24:10.757Z,99496.58
2022-09-01T07:27:09.592Z,99492.95
2022-09-01T07:29:41.569Z,99494.48
2022-09-01T07:35:00.401Z,99493.38
2022-09-01T07:43:42.755Z,99481.85
2022-09-01T07:46:37.564Z,99480.79
2022-09-01T07:51:59.614Z,99481.31
2022-09-01T07:54:30.325Z,99478.27
2022-09-01T07:56:59.139Z,99480.77
2022-09-01T07:59:28.025Z,99478.94
2022-09-01T08:02:19.162Z,99476.63
2022-09-01T08:04:49.250Z,99476.52
2022-09-01T08:07:20.688Z,99473.61
2022-09-01T08:09:48.942Z,99472.55
2022-09-01T08:12:17.719Z,99473.11
2022-09-01T08:17:51.413Z,99474.77
2022-09-01T08:20:20.469Z,99476.27
2022-09-01T08:22:54.210Z,99474.66
2022-09-01T08:25:29.563Z,99475.99
2022-09-01T08:28:00.843Z,99476.30
2022-09-01T08:30:32.741Z,99478.52
2022-09-01T08:33:17.784Z,99468.98
2022-09-01T08:35:49.712Z,99464.33
2022-09-01T08:38:19.436Z,99467.11
2022-09-01T08:40:57.171Z,99468.02
2022-09-01T08:43:57.910Z,99464.00
2022-09-01T08:46:35.568Z,99463.45
2022-09-01T08:49:27.564Z,99460.14
2022-09-01T08:52:11.280Z,99461.79
2022-09-01T08:54:54.345Z,99461.02
2022-09-01T08:57:42.097Z,99461.52
2022-09-01T09:00:51.473Z,99459.36
2022-09-01T09:03:45.918Z,99459.34
2022-09-01T09:06:29.187Z,99459.83
2022-09-01T09:09:09.373Z,99458.72
2022-09-01T09:11:56.155Z,99457.55
2022-09-01T09:14:45.869Z,99453.85
2022-09-01T09:17:18.914Z,99454.14
2022-09-01T09:19:47.290Z,99446.86
2022-09-01T09:22:21.197Z,99445.54
2022-09-01T09:25:17.510Z,99441.98
2022-09-01T09:28:00.091Z,99441.85
2022-09-01T09:30:32.719Z,99441.39
2022-09-01T09:33:44.371Z,99441.80
2022-09-01T09:35:57.744Z,99445.86
2022-09-01T09:38:29.285Z,99441.80
2022-09-01T09:41:27.025Z,99446.13
2022-09-01T09:44:01.285Z,99443.52
2022-09-01T09:46:32.487Z,99439.88
2022-09-01T09:49:13.638Z,99445.04
2022-09-01T09:51:48.636Z,99440.06
2022-09-01T09:54:30.552Z,99442.20
2022-09-01T09:57:09.575Z,99438.27
2022-09-01T10:00:00.857Z,99438.79
2022-09-01T10:02:34.896Z,99442.21
2022-09-01T10:05:25.967Z,99444.80
2022-09-01T10:07:56.018Z,99441.35
2022-09-01T10:10:30.117Z,99432.75
2022-09-01T10:12:59.224Z,99433.64
2022-09-01T10:15:32.227Z,99436.16
2022-09-01T10:18:20.628Z,99443.23
2022-09-01T10:20:58.389Z,99438.89
2022-09-01T10:23:30.865Z,99431.23
2022-09-01T10:26:09.485Z,99430.22
2022-09-01T10:28:50.701Z,99427.68
2022-09-01T10:31:20.429Z,99422.20
2022-09-01T10:33:51.108Z,99413.98
2022-09-01T10:36:24.140Z,99412.91
2022-09-01T10:38:58.791Z,99409.84
2022-09-01T10:42:13.123Z,99414.30
2022-09-01T10:45:02.097Z,99414.89
2022-09-01T10:47:38.082Z,99418.05
2022-09-01T10:50:23.906Z,99422.77
2022-09-01T10:52:59.029Z,99421.11
2022-09-01T10:55:34.350Z,99420.42
2022-09-01T11:01:25.329Z,99421.50
2022-09-01T11:04:02.919Z,99416.97
2022-09-01T11:06:42.298Z,99415.04
2022-09-01T11:09:22.172Z,99413.75
2022-09-01T11:11:50.400Z,99414.64
2022-09-01T11:14:23.903Z,99416.59
2022-09-01T11:17:52.133Z,99417.73
2022-09-01T11:20:36.838Z,99414.36
2022-09-01T11:23:12.292Z,99413.34
2022-09-01T11:26:18.978Z,99415.08
2022-09-01T11:28:41.909Z,99414.38
2022-09-01T11:31:21.886Z,99420.20
2022-09-01T11:33:59.009Z,99417.55
2022-09-01T11:36:32.298Z,99413.45
2022-09-01T11:39:32.183Z,99411.13
2022-09-01T11:42:14.850Z,99412.78
2022-09-01T11:44:48.284Z,99406.84
2022-09-01T11:47:21.632Z,99402.54
2022-09-01T11:49:54.597Z,99397.95
2022-09-01T11:53:13.778Z,99394.33
2022-09-01T11:55:45.789Z,99390.70
2022-09-01T11:58:30.841Z,99386.93
2022-09-01T12:01:31.557Z,99385.64
2022-09-01T12:04:25.751Z,99384.83
2022-09-01T12:07:03.067Z,99381.80
2022-09-01T12:09:43.710Z,99388.16
2022-09-01T12:12:32.325Z,99386.31
2022-09-01T12:15:07.589Z,99389.77
2022-09-01T12:17:37.222Z,99395.31
2022-09-01T12:20:29.523Z,99398.20
2022-09-01T12:23:00.817Z,99398.36
2022-09-01T12:25:33.293Z,99395.88
2022-09-01T12:28:06.461Z,99393.86
2022-09-01T12:30:41.406Z,99392.13
2022-09-01T12:33:27.260Z,99389.45
2022-09-01T12:36:31.497Z,99389.48
2022-09-01T12:39:18.269Z,99382.39
2022-09-01T12:42:01.095Z,99381.87
2022-09-01T12:44:39.501Z,99375.82
2022-09-01T12:47:14.181Z,99374.80
2022-09-01T12:49:50.479Z,99373.11
2022-09-01T12:52:19.876Z,99366.70
2022-09-01T12:54:52.021Z,99367.98
2022-09-01T12:58:00.355Z,99373.74
2022-09-01T13:00:34.962Z,99376.05
2022-09-01T13:03:05.132Z,99379.45
2022-09-01T13:05:41.923Z,99387.22
2022-09-01T13:08:15.250Z,99382.90
2022-09-01T13:10:47.233Z,99377.11
2022-09-01T13:13:17.086Z,99372.38
2022-09-01T13:15:50.738Z,99372.42
2022-09-01T13:18:22.119Z,99373.90
2022-09-01T13:20:53.406Z,99379.42
2022-09-01T13:23:22.454Z,99379.83
2022-09-01T13:25:51.597Z,99378.38
2022-09-01T13:34:22.651Z,99376.03
2022-09-01T13:36:47.151Z,99372.91
2022-09-01T13:39:18.802Z,99375.48
2022-09-01T13:41:47.841Z,99373.00
2022-09-01T13:44:18.690Z,99371.58
2022-09-01T13:52:24.364Z,99367.05
2022-09-01T13:54:52.682Z,99365.83
2022-09-01T13:57:21.588Z,99368.89
2022-09-01T13:59:49.951Z,99365.58
2022-09-01T14:02:22.079Z,99369.92
2022-09-01T14:04:50.442Z,99366.52
2022-09-01T14:07:19.097Z,99364.04
2022-09-01T14:09:47.410Z,99361.07
2022-09-01T14:12:15.750Z,99363.92
2022-09-01T14:17:33.335Z,99365.52
2022-09-01T14:20:02.215Z,99368.64
2022-09-01T14:22:33.183Z,99365.36
2022-09-01T14:25:05.676Z,99363.21
2022-09-01T14:27:34.018Z,99359.27
2022-09-01T14:30:02.789Z,99361.50
2022-09-01T14:32:31.135Z,99361.73
2022-09-01T14:35:04.172Z,99363.47
2022-09-01T14:37:32.411Z,99364.09
2022-09-01T14:40:01.057Z,99360.59
2022-09-01T14:42:29.910Z,99360.60
2022-09-01T14:44:58.453Z,99359.88
2022-09-01T14:47:26.680Z,99360.85
2022-09-01T14:49:56.713Z,99355.35
2022-09-01T14:52:26.171Z,99355.17
2022-09-01T14:54:54.792Z,99355.92
2022-09-01T14:57:36.953Z,99359.65
2022-09-01T15:00:12.860Z,99362.41
2022-09-01T15:02:43.041Z,99362.63
2022-09-01T15:05:13.169Z,99359.03
2022-09-01T15:07:43.381Z,99362.23
2022-09-01T15:10:15.843Z,99361.46
2022-09-01T15:12:56.058Z,99365.85
2022-09-01T15:15:25.879Z,99363.48
2022-09-01T15:17:55.365Z,99367.02
2022-09-01T15:20:43.554Z,99368.41
2022-09-01T15:23:21.103Z,99368.88
2022-09-01T15:25:52.920Z,99370.94
2022-09-01T15:28:22.842Z,99372.37
2022-09-01T15:30:54.365Z,99373.48
2022-09-01T15:33:22.955Z,99376.72
2022-09-01T15:35:51.182Z,99375.12
2022-09-01T15:38:24.985Z,99375.34
2022-09-01T15:40:58.009Z,99376.85
2022-09-01T15:43:28.834Z,99380.39
2022-09-01T15:45:59.665Z,99380.95
2022-09-01T15:48:29.449Z,99385.83
2022-09-01T15:51:15.166Z,99385.52
2022-09-01T15:53:43.360Z,99390.66
2022-09-01T15:56:11.839Z,99391.14
2022-09-01T15:59:00.249Z,99390.39
2022-09-01T16:01:30.121Z,99388.75
2022-09-01T16:03:58.790Z,99391.56
2022-09-01T16:06:30.639Z,99390.00
2022-09-01T16:09:01.032Z,99393.52
2022-09-01T16:11:29.368Z,99393.39
2022-09-01T16:13:58.730Z,99394.59
2022-09-01T16:16:52.209Z,99396.00
2022-09-01T16:19:24.645Z,99395.92
2022-09-01T16:22:16.088Z,99393.13
2022-09-01T16:25:24.557Z,99392.41
2022-09-01T16:27:55.150Z,99396.48
2022-09-01T16:30:29.487Z,99394.27
2022-09-01T16:33:02.228Z,99393.80
2022-09-01T16:35:44.896Z,99398.57
2022-09-01T16:38:23.823Z,99399.82
2022-09-01T16:41:08.359Z,99399.45
2022-09-01T16:44:05.508Z,99401.48
2022-09-01T16:46:45.755Z,99403.33
2022-09-01T16:49:34.441Z,99407.73
2022-09-01T16:52:13.378Z,99407.65
2022-09-01T16:55:00.389Z,99412.16
2022-09-01T16:57:43.404Z,99411.27
2022-09-01T17:00:14.314Z,99414.41
2022-09-01T17:03:17.134Z,99415.95
2022-09-01T17:06:03.569Z,99416.30
2022-09-01T17:08:38.827Z,99425.07
2022-09-01T17:11:19.419Z,99430.88
2022-09-01T17:13:52.351Z,99430.61
2022-09-01T17:16:29.943Z,99432.03
2022-09-01T17:19:05.855Z,99431.72
2022-09-01T17:22:05.567Z,99435.98
2022-09-01T17:24:38.622Z,99438.34
2022-09-01T17:27:14.196Z,99437.92
2022-09-01T17:29:52.083Z,99440.05
2022-09-01T17:32:48.059Z,99441.50
2022-09-01T17:36:09.331Z,99444.12
2022-09-01T17:39:03.830Z,99451.95
2022-09-01T17:41:41.510Z,99451.63
2022-09-01T17:44:33.751Z,99451.52
2022-09-01T17:47:40.946Z,99452.86
2022-09-01T17:50:27.297Z,99456.26
2022-09-01T17:53:01.942Z,99457.27
2022-09-01T17:55:57.705Z,99460.62
2022-09-01T17:58:45.349Z,99462.23
2022-09-01T18:01:59.136Z,99464.88
2022-09-01T18:04:39.000Z,99470.59
2022-09-01T18:07:35.090Z,99474.52
2022-09-01T18:10:08.542Z,99481.15
2022-09-01T18:12:40.438Z,99483.48
2022-09-01T18:15:16.910Z,99488.06
2022-09-01T18:17:50.785Z,99491.28
2022-09-01T18:20:26.325Z,99493.52
2022-09-01T18:23:18.791Z,99499.27
2022-09-01T18:25:58.210Z,99506.06
2022-09-01T18:28:26.615Z,99513.61
2022-09-01T18:31:22.689Z,99517.56
2022-09-01T18:34:14.970Z,99519.83
2022-09-01T18:37:10.646Z,99515.26
2022-09-01T18:40:11.126Z,99514.45
2022-09-01T18:42:48.660Z,99517.50
2022-09-01T18:45:16.948Z,99508.63
2022-09-01T18:48:05.129Z,99509.45
2022-09-01T18:51:01.294Z,99514.33
2022-09-01T18:53:42.430Z,99512.06
2022-09-01T18:56:10.769Z,99514.17
2022-09-01T18:59:03.092Z,99518.39
2022-09-01T19:01:39.124Z,99519.75
2022-09-01T19:04:21.723Z,99522.65
2022-09-01T19:07:08.633Z,99525.38
2022-09-01T19:09:46.601Z,99529.13
2022-09-01T19:12:35.886Z,99527.48
2022-09-01T19:15:22.270Z,99531.20
2022-09-01T19:18:12.939Z,99535.61
2022-09-01T19:20:48.771Z,99541.25
2022-09-01T19:23:27.682Z,99543.59
2022-09-01T19:26:04.158Z,99544.82
2022-09-01T19:28:47.862Z,99544.83
2022-09-01T19:31:31.179Z,99543.45
2022-09-01T19:34:09.076Z,99546.98
2022-09-01T19:36:46.205Z,99543.67
2022-09-01T19:39:18.437Z,99546.98
2022-09-01T19:42:14.306Z,99546.94
2022-09-01T19:45:12.987Z,99549.17
2022-09-01T19:47:53.402Z,99550.11
2022-09-01T19:50:38.813Z,99551.35
2022-09-01T19:53:28.922Z,99550.20
2022-09-01T19:56:07.196Z,99551.84
2022-09-01T19:58:41.917Z,99554.27
2022-09-01T20:01:14.470Z,99561.42
2022-09-01T20:03:51.165Z,99557.64
2022-09-01T20:06:19.431Z,99559.91
2022-09-01T20:09:06.035Z,99560.38
2022-09-01T20:12:01.308Z,99559.44
2022-09-01T20:15:00.740Z,99562.85
2022-09-01T20:17:49.802Z,99561.95
2022-09-01T20:20:24.698Z,99571.51
2022-09-01T20:23:14.152Z,99567.23
2022-09-01T20:25:48.045Z,99568.85
2022-09-01T20:28:24.006Z,99572.52
2022-09-01T20:31:01.320Z,99573.77
2022-09-01T20:33:54.335Z,99575.12
2022-09-01T20:36:35.632Z,99575.92
2022-09-01T20:39:34.587Z,99577.04
2022-09-01T20:42:09.306Z,99575.40
2022-09-01T20:44:48.370Z,99575.58
2022-09-01T20:47:17.192Z,99578.04
2022-09-01T20:49:45.837Z,99576.77
2022-09-01T20:52:52.083Z,99579.65
2022-09-01T20:55:30.526Z,99575.16
2022-09-01T20:58:27.810Z,99578.50
2022-09-01T21:01:03.285Z,99573.89
2022-09-01T21:03:50.846Z,99573.20
2022-09-01T21:06:48.970Z,99573.69
2022-09-01T21:09:32.266Z,99578.45
2022-09-01T21:12:27.554Z,99584.10
2022-09-01T21:15:17.343Z,99584.95
2022-09-01T21:18:47.725Z,99586.70
2022-09-01T21:21:21.116Z,99588.36
2022-09-01T21:23:49.369Z,99587.09
2022-09-01T21:26:17.865Z,99590.50
2022-09-01T21:28:51.837Z,99589.92
2022-09-01T21:31:20.303Z,99596.34
2022-09-01T21:33:48.647Z,99593.86
2022-09-01T21:36:17.791Z,99590.25
2022-09-01T21:38:46.203Z,99593.73
2022-09-01T21:41:14.721Z,99599.94
2022-09-01T21:43:45.505Z,99596.44
2022-09-01T21:46:15.360Z,99600.90
2022-09-01T21:48:43.767Z,99600.25
2022-09-01T21:51:12.017Z,99597.74
2022-09-01T21:53:40.634Z,99600.30
2022-09-01T21:56:09.386Z,99599.79
2022-09-01T21:58:38.501Z,99600.58
2022-09-01T22:01:07.645Z,99596.41
2022-09-01T22:03:38.865Z,99596.52
2022-09-01T22:06:11.546Z,99596.09
2022-09-01T22:08:39.795Z,99598.42
2022-09-01T22:11:10.860Z,99597.15
2022-09-01T22:13:39.189Z,99598.84
2022-09-01T22:16:07.887Z,99599.11
2022-09-01T22:18:36.227Z,99598.98
2022-09-01T22:21:09.945Z,99595.95
2022-09-01T22:23:38.482Z,99596.47
2022-09-01T22:26:07.562Z,99599.42
2022-09-01T22:28:36.390Z,99600.11
2022-09-01T22:31:04.781Z,99600.28
2022-09-01T22:33:33.126Z,99599.77
2022-09-01T22:36:01.450Z,99596.13
2022-09-01T22:38:29.864Z,99597.67
2022-09-01T22:40:59.892Z,99598.02
2022-09-01T22:43:29.800Z,99596.05
2022-09-01T22:45:59.618Z,99599.98
2022-09-01T22:48:29.200Z,99600.27
2022-09-01T22:50:57.528Z,99597.49
2022-09-01T22:53:25.958Z,99598.52
2022-09-01T22:55:54.970Z,99602.01
2022-09-01T22:58:23.769Z,99605.17
2022-09-01T23:00:55.990Z,99602.08
2022-09-01T23:03:24.421Z,99596.92
2022-09-01T23:06:04.135Z,99598.92
2022-09-01T23:08:33.227Z,99596.52
2022-09-01T23:11:01.780Z,99594.69
2022-09-01T23:13:30.801Z,99590.92
2022-09-01T23:16:04.665Z,99592.23
2022-09-01T23:18:35.259Z,99593.94
2022-09-01T23:21:05.599Z,99595.46
2022-09-01T23:23:33.988Z,99593.28
2022-09-01T23:26:04.938Z,99599.74
2022-09-01T23:28:34.154Z,99599.51
2022-09-01T23:31:02.668Z,99600.13
2022-09-01T23:33:31.029Z,99599.59
2022-09-01T23:36:00.135Z,99598.25
2022-09-01T23:38:29.355Z,99600.73
2022-09-01T23:40:58.113Z,99602.38
2022-09-01T23:43:27.660Z,99601.52
2022-09-01T23:45:56.884Z,99602.19
2022-09-01T23:48:25.774Z,99599.46
2022-09-01T23:50:58.062Z,99597.62
2022-09-01T23:53:31.738Z,99596.69
2022-09-01T23:56:03.998Z,99595.72
2022-09-01T23:58:32.625Z,99589.64
